createdAt,value
2019-05-30T00:00:37.848Z,20.20
2019-05-30T00:03:04.979Z,20.20
2019-05-30T00:05:32.223Z,20.20
2019-05-30T00:08:00.328Z,20.20
2019-05-30T00:10:26.508Z,20.20
2019-05-30T00:12:54.674Z,20.20
2019-05-30T00:15:20.795Z,20.20
2019-05-30T00:17:47.887Z,20.20
2019-05-30T00:20:14.979Z,20.20
2019-05-30T00:22:42.200Z,20.20
2019-05-30T00:25:09.303Z,20.20
2019-05-30T00:27:36.452Z,20.20
2019-05-30T00:30:03.668Z,20.20
2019-05-30T00:32:30.795Z,20.20
2019-05-30T00:34:57.927Z,20.20
2019-05-30T00:37:25.015Z,20.20
2019-05-30T00:39:52.160Z,20.20
2019-05-30T00:42:19.288Z,20.20
2019-05-30T00:44:46.433Z,20.20
2019-05-30T00:47:13.619Z,20.20
2019-05-30T00:49:40.687Z,20.20
2019-05-30T00:52:07.866Z,20.20
2019-05-30T00:54:35.011Z,20.20
2019-05-30T00:57:02.764Z,20.20
2019-05-30T00:59:29.213Z,20.20
2019-05-30T01:01:56.589Z,20.20
2019-05-30T01:04:23.490Z,20.20
2019-05-30T01:06:50.670Z,20.20
2019-05-30T01:09:17.899Z,20.20
2019-05-30T01:11:44.959Z,20.20
2019-05-30T01:14:12.159Z,20.20
2019-05-30T01:16:41.830Z,20.20
2019-05-30T01:19:07.352Z,20.20
2019-05-30T01:21:33.670Z,20.30
2019-05-30T01:24:01.331Z,20.20
2019-05-30T01:26:27.976Z,20.20
2019-05-30T01:28:55.074Z,20.10
2019-05-30T01:31:22.201Z,20.20
2019-05-30T01:33:49.368Z,20.20
2019-05-30T01:36:16.595Z,20.20
2019-05-30T01:38:43.724Z,20.20
2019-05-30T01:41:10.838Z,20.20
2019-05-30T01:43:37.940Z,20.20
2019-05-30T01:46:11.717Z,20.20
2019-05-30T01:48:38.790Z,20.20
2019-05-30T01:51:06.534Z,20.20
2019-05-30T01:53:33.018Z,20.20
2019-05-30T01:56:00.656Z,20.20
2019-05-30T01:58:27.326Z,20.20
2019-05-30T02:00:54.423Z,20.20
2019-05-30T02:03:21.497Z,20.20
2019-05-30T02:05:48.631Z,20.20
2019-05-30T02:08:15.705Z,20.20
2019-05-30T02:10:42.944Z,20.20
2019-05-30T02:13:10.094Z,20.20
2019-05-30T02:15:37.143Z,20.20
2019-05-30T02:18:05.622Z,20.10
2019-05-30T02:20:31.432Z,20.20
2019-05-30T02:22:59.628Z,20.10
2019-05-30T02:25:25.646Z,20.20
2019-05-30T02:27:52.778Z,20.10
2019-05-30T02:30:19.872Z,20.20
2019-05-30T02:32:47.046Z,20.10
2019-05-30T02:35:14.187Z,20.10
2019-05-30T02:37:41.365Z,20.10
2019-05-30T02:40:12.272Z,20.10
2019-05-30T02:42:35.533Z,20.20
2019-05-30T02:45:03.570Z,20.10
2019-05-30T02:47:29.960Z,20.10
2019-05-30T02:49:57.004Z,20.10
2019-05-30T02:52:24.070Z,20.10
2019-05-30T02:54:51.212Z,20.10
2019-05-30T02:57:18.327Z,20.10
2019-05-30T02:59:45.445Z,20.10
2019-05-30T03:02:17.100Z,20.10
2019-05-30T03:04:39.833Z,20.10
2019-05-30T03:07:08.495Z,20.10
2019-05-30T03:09:34.065Z,20.10
2019-05-30T03:12:02.029Z,20.10
2019-05-30T03:14:28.258Z,20.10
2019-05-30T03:16:55.380Z,20.20
2019-05-30T03:19:22.451Z,20.10
2019-05-30T03:21:49.534Z,20.10
2019-05-30T03:24:16.601Z,20.10
2019-05-30T03:26:43.781Z,20.10
2019-05-30T03:29:12.509Z,20.10
2019-05-30T03:31:37.960Z,20.10
2019-05-30T03:34:10.062Z,20.10
2019-05-30T03:36:32.299Z,20.10
2019-05-30T03:38:59.386Z,20.10
2019-05-30T03:41:26.498Z,20.10
2019-05-30T03:43:53.588Z,20.10
2019-05-30T03:46:21.496Z,20.10
2019-05-30T03:48:48.870Z,20.10
2019-05-30T03:51:15.926Z,20.10
2019-05-30T03:53:43.009Z,20.10
2019-05-30T03:56:12.059Z,20.10
2019-05-30T03:58:47.167Z,20.10
2019-05-30T04:01:16.250Z,20.10
2019-05-30T04:03:49.653Z,20.10
2019-05-30T04:06:20.573Z,20.10
2019-05-30T04:08:47.681Z,20.10
2019-05-30T04:11:16.585Z,20.10
2019-05-30T04:13:46.039Z,20.10
2019-05-30T04:16:13.599Z,20.10
2019-05-30T04:18:40.366Z,20.10
2019-05-30T04:21:08.511Z,20.10
2019-05-30T04:23:34.651Z,20.10
2019-05-30T04:26:01.841Z,20.00
2019-05-30T04:28:29.004Z,20.10
2019-05-30T04:30:56.079Z,20.10
2019-05-30T04:33:32.577Z,20.10
2019-05-30T04:35:50.356Z,20.10
2019-05-30T04:38:19.262Z,20.10
2019-05-30T04:40:44.675Z,20.10
2019-05-30T04:43:13.345Z,20.10
2019-05-30T04:45:39.039Z,20.10
2019-05-30T04:48:06.275Z,20.10
2019-05-30T04:50:33.368Z,20.00
2019-05-30T04:53:00.501Z,20.10
2019-05-30T04:55:27.654Z,20.10
2019-05-30T04:57:56.981Z,20.10
2019-05-30T05:00:24.254Z,20.10
2019-05-30T05:02:58.825Z,20.10
2019-05-30T05:05:27.317Z,20.00
2019-05-30T05:07:55.296Z,20.10
2019-05-30T05:10:23.912Z,20.10
2019-05-30T05:12:51.087Z,20.10
2019-05-30T05:15:18.655Z,20.10
2019-05-30T05:17:45.473Z,20.00
2019-05-30T05:20:13.058Z,20.00
2019-05-30T05:22:39.735Z,20.10
2019-05-30T05:25:06.959Z,20.00
2019-05-30T05:27:34.103Z,20.10
2019-05-30T05:30:01.213Z,20.10
2019-05-30T05:32:28.466Z,20.10
2019-05-30T05:34:55.521Z,20.10
2019-05-30T05:37:23.292Z,20.10
2019-05-30T05:39:49.899Z,20.10
2019-05-30T05:42:18.043Z,20.10
2019-05-30T05:44:44.188Z,20.10
2019-05-30T05:47:11.309Z,20.00
2019-05-30T05:49:38.487Z,20.00
2019-05-30T05:52:05.559Z,20.00
2019-05-30T05:54:32.675Z,20.00
2019-05-30T05:56:59.763Z,20.10
2019-05-30T05:59:26.876Z,20.00
2019-05-30T06:01:54.024Z,20.10
2019-05-30T06:04:21.252Z,20.00
2019-05-30T06:06:48.359Z,20.00
2019-05-30T06:09:16.429Z,20.00
2019-05-30T06:11:42.632Z,20.00
2019-05-30T06:14:09.739Z,20.10
2019-05-30T06:16:36.933Z,20.00
2019-05-30T06:19:04.061Z,20.00
2019-05-30T06:21:31.120Z,20.10
2019-05-30T06:23:58.296Z,20.00
2019-05-30T06:26:25.926Z,20.00
2019-05-30T06:28:52.581Z,20.00
2019-05-30T06:31:20.333Z,20.00
2019-05-30T06:33:46.907Z,20.10
2019-05-30T06:36:14.128Z,20.10
2019-05-30T06:38:41.195Z,20.10
2019-05-30T06:41:08.302Z,20.00
2019-05-30T06:43:35.418Z,20.00
2019-05-30T06:46:02.476Z,20.00
2019-05-30T06:48:30.878Z,20.00
2019-05-30T06:50:56.819Z,20.00
2019-05-30T06:53:25.051Z,20.00
2019-05-30T06:55:51.071Z,20.10
2019-05-30T06:58:18.239Z,20.10
2019-05-30T07:00:45.401Z,20.00
2019-05-30T07:03:12.573Z,20.10
2019-05-30T07:05:40.270Z,20.00
2019-05-30T07:08:06.922Z,20.00
2019-05-30T07:10:34.043Z,20.00
2019-05-30T07:13:01.181Z,20.00
2019-05-30T07:15:29.252Z,20.00
2019-05-30T07:17:55.523Z,20.00
2019-05-30T07:20:23.519Z,20.10
2019-05-30T07:22:49.775Z,20.00
2019-05-30T07:25:16.925Z,20.00
2019-05-30T07:27:44.099Z,20.00
2019-05-30T07:30:11.168Z,20.10
2019-05-30T07:32:38.260Z,20.00
2019-05-30T07:35:07.156Z,20.10
2019-05-30T07:37:32.584Z,20.10
2019-05-30T07:39:59.718Z,20.00
2019-05-30T07:42:26.832Z,20.00
2019-05-30T07:44:53.995Z,20.00
2019-05-30T07:47:21.064Z,20.00
2019-05-30T07:49:48.187Z,20.00
2019-05-30T07:52:15.390Z,20.00
2019-05-30T07:54:42.492Z,20.00
2019-05-30T07:57:09.668Z,20.00
2019-05-30T07:59:36.784Z,20.00
2019-05-30T08:02:03.884Z,20.10
2019-05-30T08:04:32.519Z,20.00
2019-05-30T08:06:58.382Z,20.10
2019-05-30T08:09:26.714Z,20.00
2019-05-30T08:11:52.679Z,20.10
2019-05-30T08:14:19.799Z,20.00
2019-05-30T08:16:46.851Z,20.00
2019-05-30T08:19:13.964Z,20.00
2019-05-30T08:21:41.126Z,20.00
2019-05-30T08:24:08.271Z,20.00
2019-05-30T08:26:36.396Z,20.00
2019-05-30T08:29:02.615Z,20.00
2019-05-30T08:31:30.428Z,20.10
2019-05-30T08:33:56.854Z,20.00
2019-05-30T08:36:23.971Z,20.00
2019-05-30T08:38:51.109Z,20.00
2019-05-30T08:41:18.155Z,20.00
2019-05-30T08:43:45.241Z,20.10
2019-05-30T08:46:12.368Z,20.10
2019-05-30T08:48:40.389Z,20.10
2019-05-30T08:51:06.636Z,20.10
2019-05-30T08:53:34.360Z,20.10
2019-05-30T08:56:00.843Z,20.10
2019-05-30T08:58:27.992Z,20.10
2019-05-30T09:00:55.176Z,20.10
2019-05-30T09:03:22.332Z,20.10
2019-05-30T09:06:02.512Z,20.10
2019-05-30T09:08:16.642Z,20.10
2019-05-30T09:10:44.430Z,20.10
2019-05-30T09:13:10.928Z,20.10
2019-05-30T09:15:39.143Z,20.10
2019-05-30T09:18:05.146Z,20.10
2019-05-30T09:20:32.253Z,20.10
2019-05-30T09:22:59.400Z,20.10
2019-05-30T09:25:26.519Z,20.10
2019-05-30T09:27:53.680Z,20.10
2019-05-30T09:30:20.780Z,20.00
2019-05-30T09:32:48.907Z,20.10
2019-05-30T09:35:15.306Z,20.10
2019-05-30T09:37:43.783Z,20.00
2019-05-30T09:40:09.262Z,20.10
2019-05-30T09:42:36.384Z,20.20
2019-05-30T09:45:04.097Z,20.10
2019-05-30T09:47:31.351Z,20.10
2019-05-30T09:49:58.493Z,20.10
2019-05-30T09:52:25.653Z,20.10
2019-05-30T09:54:52.805Z,20.10
2019-05-30T09:57:19.965Z,20.10
2019-05-30T09:59:48.562Z,20.10
2019-05-30T10:02:14.366Z,20.10
2019-05-30T10:04:42.092Z,20.20
2019-05-30T10:07:08.720Z,20.10
2019-05-30T10:09:35.848Z,20.10
2019-05-30T10:12:02.918Z,20.20
2019-05-30T10:14:30.115Z,20.20
2019-05-30T10:16:58.118Z,20.20
2019-05-30T10:19:24.456Z,20.20
2019-05-30T10:21:53.147Z,20.20
2019-05-30T10:24:19.092Z,20.20
2019-05-30T10:26:47.235Z,20.20
2019-05-30T10:29:13.473Z,20.20
2019-05-30T10:31:40.591Z,20.20
2019-05-30T10:34:07.744Z,20.20
2019-05-30T10:36:43.932Z,20.20
2019-05-30T10:39:02.211Z,20.20
2019-05-30T10:41:29.339Z,20.20
2019-05-30T10:43:57.300Z,20.20
2019-05-30T10:46:23.720Z,20.20
2019-05-30T10:48:51.013Z,20.20
2019-05-30T10:51:17.949Z,20.20
2019-05-30T10:53:45.494Z,20.10
2019-05-30T10:56:12.375Z,20.20
2019-05-30T10:58:39.479Z,20.20
2019-05-30T11:01:06.563Z,20.30
2019-05-30T11:03:33.655Z,20.30
2019-05-30T11:06:08.302Z,20.30
2019-05-30T11:08:35.407Z,20.30
2019-05-30T11:11:02.589Z,20.20
2019-05-30T11:13:29.754Z,20.30
2019-05-30T11:15:57.436Z,20.30
2019-05-30T11:18:24.098Z,20.30
2019-05-30T11:20:52.293Z,20.30
2019-05-30T11:23:18.324Z,20.30
2019-05-30T11:25:45.472Z,20.30
2019-05-30T11:28:12.604Z,20.30
2019-05-30T11:30:39.715Z,20.30
2019-05-30T11:33:06.785Z,20.30
2019-05-30T11:35:33.883Z,20.30
2019-05-30T11:38:00.927Z,20.30
2019-05-30T11:40:28.076Z,20.30
2019-05-30T11:42:55.545Z,20.40
2019-05-30T11:45:22.316Z,20.40
2019-05-30T11:47:49.628Z,20.30
2019-05-30T11:50:16.679Z,20.30
2019-05-30T11:52:43.736Z,20.30
2019-05-30T11:55:10.812Z,20.30
2019-05-30T11:57:37.944Z,20.30
2019-05-30T12:00:05.127Z,20.30
2019-05-30T12:02:32.213Z,20.30
2019-05-30T12:04:59.345Z,20.30
2019-05-30T12:07:35.725Z,20.30
2019-05-30T12:09:54.784Z,20.30
2019-05-30T12:12:20.868Z,20.30
2019-05-30T12:14:47.979Z,20.30
2019-05-30T12:17:15.054Z,20.30
2019-05-30T12:19:42.132Z,20.30
2019-05-30T12:22:09.295Z,20.30
2019-05-30T12:24:36.333Z,20.30
2019-05-30T12:27:03.428Z,20.30
2019-05-30T12:29:30.548Z,20.30
2019-05-30T12:32:00.254Z,20.40
2019-05-30T12:34:24.774Z,20.40
2019-05-30T12:36:52.307Z,20.40
2019-05-30T12:39:19.000Z,20.40
2019-05-30T12:41:46.159Z,20.40
2019-05-30T12:44:13.240Z,20.40
2019-05-30T12:46:40.370Z,20.40
2019-05-30T12:49:07.499Z,20.40
2019-05-30T12:51:34.612Z,20.40
2019-05-30T12:54:02.713Z,20.40
2019-05-30T12:56:28.909Z,20.40
2019-05-30T12:58:56.532Z,20.40
2019-05-30T13:01:23.190Z,20.40
2019-05-30T13:03:50.412Z,20.40
2019-05-30T13:06:17.539Z,20.40
2019-05-30T13:08:44.656Z,20.40
2019-05-30T13:11:11.772Z,20.40
2019-05-30T13:13:38.934Z,20.40
2019-05-30T13:16:08.526Z,20.30
2019-05-30T13:18:33.124Z,20.40
2019-05-30T13:21:00.250Z,20.40
2019-05-30T13:23:27.342Z,20.40
2019-05-30T13:25:55.491Z,20.40
2019-05-30T13:28:21.571Z,20.40
2019-05-30T13:30:48.703Z,20.40
2019-05-30T13:33:15.783Z,20.40
2019-05-30T13:35:42.848Z,20.40
2019-05-30T13:38:10.028Z,20.40
2019-05-30T13:40:37.184Z,20.40
2019-05-30T13:43:04.248Z,20.40
2019-05-30T13:45:31.428Z,20.40
2019-05-30T13:47:58.602Z,20.40
2019-05-30T13:50:25.776Z,20.40
2019-05-30T13:52:52.833Z,20.40
2019-05-30T13:55:19.920Z,20.40
2019-05-30T13:57:47.067Z,20.40
2019-05-30T14:00:14.180Z,20.40
2019-05-30T14:02:41.330Z,20.40
2019-05-30T14:05:08.490Z,20.40
2019-05-30T14:07:35.643Z,20.40
2019-05-30T14:10:04.247Z,20.40
2019-05-30T14:12:30.206Z,20.40
2019-05-30T14:14:57.282Z,20.40
2019-05-30T14:17:24.423Z,20.40
2019-05-30T14:19:51.590Z,20.40
2019-05-30T14:22:18.763Z,20.50
2019-05-30T14:24:45.940Z,20.50
2019-05-30T14:27:13.077Z,20.50
2019-05-30T14:29:40.325Z,20.40
2019-05-30T14:32:07.895Z,20.50
2019-05-30T14:34:34.692Z,20.40
2019-05-30T14:37:02.408Z,20.40
2019-05-30T14:39:29.082Z,20.40
2019-05-30T14:41:56.142Z,20.40
2019-05-30T14:44:23.741Z,20.40
2019-05-30T14:46:50.536Z,20.50
2019-05-30T14:49:17.726Z,20.40
2019-05-30T14:51:44.868Z,20.40
2019-05-30T14:54:13.065Z,20.40
2019-05-30T14:56:39.066Z,20.40
2019-05-30T14:59:06.879Z,20.40
2019-05-30T15:01:33.373Z,20.50
2019-05-30T15:04:00.504Z,20.40
2019-05-30T15:06:27.628Z,20.40
2019-05-30T15:08:54.993Z,20.40
2019-05-30T15:11:22.120Z,20.50
2019-05-30T15:13:49.229Z,20.50
2019-05-30T15:16:17.206Z,20.40
2019-05-30T15:18:43.519Z,20.40
2019-05-30T15:21:10.631Z,20.40
2019-05-30T15:23:37.788Z,20.40
2019-05-30T15:26:05.895Z,20.40
2019-05-30T15:28:32.027Z,20.40
2019-05-30T15:30:59.201Z,20.50
2019-05-30T15:33:26.301Z,20.40
2019-05-30T15:35:53.392Z,20.40
2019-05-30T15:38:20.602Z,20.40
2019-05-30T15:40:47.714Z,20.40
2019-05-30T15:43:15.551Z,20.40
2019-05-30T15:45:41.911Z,20.50
2019-05-30T15:48:10.225Z,20.50
2019-05-30T15:50:36.165Z,20.50
2019-05-30T15:53:10.979Z,20.40
2019-05-30T15:55:37.159Z,20.40
2019-05-30T15:58:04.318Z,20.50
2019-05-30T16:00:31.471Z,20.40
2019-05-30T16:02:58.720Z,20.50
2019-05-30T16:05:25.862Z,20.50
2019-05-30T16:07:53.008Z,20.50
2019-05-30T16:10:21.058Z,20.40
2019-05-30T16:12:47.241Z,20.50
2019-05-30T16:15:15.443Z,20.50
2019-05-30T16:17:41.483Z,20.50
2019-05-30T16:20:08.564Z,20.50
2019-05-30T16:22:35.619Z,20.50
2019-05-30T16:25:02.758Z,20.50
2019-05-30T16:27:31.205Z,20.50
2019-05-30T16:29:57.070Z,20.50
2019-05-30T16:32:24.208Z,20.50
2019-05-30T16:34:51.368Z,20.50
2019-05-30T16:37:18.519Z,20.50
2019-05-30T16:39:45.652Z,20.50
2019-05-30T16:42:14.319Z,20.50
2019-05-30T16:44:40.252Z,20.50
2019-05-30T16:47:07.380Z,20.50
2019-05-30T16:49:34.469Z,20.50
2019-05-30T16:52:01.564Z,20.50
2019-05-30T16:54:28.623Z,20.50
2019-05-30T16:56:55.762Z,20.50
2019-05-30T16:59:22.940Z,20.50
2019-05-30T17:01:57.885Z,20.50
2019-05-30T17:04:17.237Z,20.50
2019-05-30T17:06:44.392Z,20.70
2019-05-30T17:09:11.568Z,20.50
2019-05-30T17:11:38.669Z,20.50
2019-05-30T17:14:05.766Z,20.50
2019-05-30T17:16:32.897Z,20.50
2019-05-30T17:19:06.775Z,20.50
2019-05-30T17:21:33.908Z,20.50
2019-05-30T17:24:01.063Z,20.50
2019-05-30T17:26:28.210Z,20.50
2019-05-30T17:28:55.313Z,20.50
2019-05-30T17:31:22.411Z,20.50
2019-05-30T17:33:49.543Z,20.50
2019-05-30T17:36:16.613Z,20.50
2019-05-30T17:38:43.840Z,20.50
2019-05-30T17:41:10.932Z,20.50
2019-05-30T17:43:38.035Z,20.50
2019-05-30T17:46:07.794Z,20.50
2019-05-30T17:48:32.327Z,20.50
2019-05-30T17:50:59.436Z,20.50
2019-05-30T17:53:27.873Z,20.50
2019-05-30T17:55:53.745Z,20.50
2019-05-30T17:58:21.857Z,20.50
2019-05-30T18:00:48.012Z,20.50
2019-05-30T18:03:15.211Z,20.50
2019-05-30T18:05:42.360Z,20.50
2019-05-30T18:08:09.614Z,20.50
2019-05-30T18:10:36.714Z,20.50
2019-05-30T18:13:03.912Z,20.50
2019-05-30T18:15:32.425Z,20.50
2019-05-30T18:17:58.208Z,20.50
2019-05-30T18:20:25.379Z,20.50
2019-05-30T18:22:52.441Z,20.50
2019-05-30T18:25:19.535Z,20.50
2019-05-30T18:27:46.702Z,20.50
2019-05-30T18:30:13.771Z,20.50
2019-05-30T18:32:40.911Z,20.50
2019-05-30T18:35:07.989Z,20.50
2019-05-30T18:37:35.072Z,20.50
2019-05-30T18:40:02.139Z,20.50
2019-05-30T18:42:29.284Z,20.50
2019-05-30T18:44:56.421Z,20.60
2019-05-30T18:47:23.539Z,20.50
2019-05-30T18:49:50.587Z,20.60
2019-05-30T18:52:17.725Z,20.50
2019-05-30T18:54:44.819Z,20.50
2019-05-30T18:57:11.962Z,20.50
2019-05-30T18:59:39.019Z,20.60
2019-05-30T19:02:06.280Z,20.50
2019-05-30T19:04:33.682Z,20.50
2019-05-30T19:07:00.508Z,20.50
2019-05-30T19:09:29.248Z,20.50
2019-05-30T19:11:54.793Z,20.50
2019-05-30T19:14:21.880Z,20.50
2019-05-30T19:16:48.972Z,20.60
2019-05-30T19:19:16.142Z,20.50
2019-05-30T19:21:43.256Z,20.50
2019-05-30T19:24:10.443Z,20.50
2019-05-30T19:26:37.532Z,20.60
2019-05-30T19:29:04.706Z,20.60
2019-05-30T19:31:32.665Z,20.50
2019-05-30T19:33:59.003Z,20.50
2019-05-30T19:36:26.846Z,20.50
2019-05-30T19:38:53.401Z,20.50
2019-05-30T19:41:20.531Z,20.50
2019-05-30T19:43:47.671Z,20.50
2019-05-30T19:46:14.787Z,20.50
2019-05-30T19:48:41.936Z,20.50
2019-05-30T19:51:09.037Z,20.50
2019-05-30T19:53:36.996Z,20.50
2019-05-30T19:56:03.324Z,20.50
2019-05-30T19:58:31.556Z,20.50
2019-05-30T20:00:59.095Z,20.50
2019-05-30T20:03:36.256Z,20.50
2019-05-30T20:05:51.972Z,20.50
2019-05-30T20:08:19.017Z,20.50
2019-05-30T20:10:46.110Z,20.50
2019-05-30T20:13:13.264Z,20.50
2019-05-30T20:15:41.480Z,20.50
2019-05-30T20:18:07.589Z,20.50
2019-05-30T20:20:50.686Z,20.50
2019-05-30T20:23:01.849Z,20.50
2019-05-30T20:25:28.989Z,20.50
2019-05-30T20:27:56.160Z,20.50
2019-05-30T20:30:23.253Z,20.50
2019-05-30T20:32:50.371Z,20.50
2019-05-30T20:35:17.520Z,20.50
2019-05-30T20:37:44.647Z,20.50
2019-05-30T20:40:11.915Z,20.50
2019-05-30T20:42:39.164Z,20.50
2019-05-30T20:45:09.729Z,20.50
2019-05-30T20:47:35.926Z,20.50
2019-05-30T20:50:01.638Z,20.50
2019-05-30T20:52:28.775Z,20.50
2019-05-30T20:54:55.916Z,20.50
2019-05-30T20:57:23.055Z,20.50
2019-05-30T20:59:50.186Z,20.60
2019-05-30T21:02:17.263Z,20.50
2019-05-30T21:04:44.505Z,20.50
2019-05-30T21:07:11.613Z,20.50
2019-05-30T21:09:39.913Z,20.50
2019-05-30T21:12:05.863Z,20.50
2019-05-30T21:14:32.916Z,20.50
2019-05-30T21:17:00.099Z,20.50
2019-05-30T21:19:27.242Z,20.50
2019-05-30T21:21:54.393Z,20.40
2019-05-30T21:24:21.457Z,20.40
2019-05-30T21:26:48.701Z,20.40
2019-05-30T21:29:15.751Z,20.50
2019-05-30T21:31:43.497Z,20.50
2019-05-30T21:34:10.220Z,20.50
2019-05-30T21:36:37.710Z,20.40
2019-05-30T21:39:05.432Z,20.40
2019-05-30T21:41:32.508Z,20.50
2019-05-30T21:43:59.636Z,20.40
2019-05-30T21:46:26.749Z,20.40
2019-05-30T21:48:53.895Z,20.40
2019-05-30T21:51:20.988Z,20.40
2019-05-30T21:53:48.091Z,20.40
2019-05-30T21:56:15.291Z,20.50
2019-05-30T21:58:42.404Z,20.50
2019-05-30T22:01:22.859Z,20.40
2019-05-30T22:03:51.023Z,20.40
2019-05-30T22:06:17.108Z,20.40
2019-05-30T22:08:45.412Z,20.50
2019-05-30T22:11:11.441Z,20.40
2019-05-30T22:13:38.616Z,20.40
2019-05-30T22:16:05.699Z,20.40
2019-05-30T22:18:32.871Z,20.40
2019-05-30T22:21:00.058Z,20.40
2019-05-30T22:23:27.207Z,20.40
2019-05-30T22:25:54.287Z,20.40
2019-05-30T22:28:21.364Z,20.40
2019-05-30T22:30:48.556Z,20.40
2019-05-30T22:33:15.653Z,20.40
2019-05-30T22:35:42.736Z,20.40
2019-05-30T22:38:09.791Z,20.40
2019-05-30T22:40:36.889Z,20.40
2019-05-30T22:43:03.959Z,20.40
2019-05-30T22:45:31.112Z,20.40
2019-05-30T22:47:58.204Z,20.40
2019-05-30T22:50:25.282Z,20.40
2019-05-30T22:52:53.046Z,20.40
2019-05-30T22:55:19.461Z,20.40
2019-05-30T22:57:46.688Z,20.40
2019-05-30T23:00:13.791Z,20.40
2019-05-30T23:02:40.910Z,20.40
2019-05-30T23:05:08.036Z,20.40
2019-05-30T23:07:35.193Z,20.40
2019-05-30T23:10:02.318Z,20.40
2019-05-30T23:12:29.388Z,20.40
2019-05-30T23:14:56.508Z,20.40
2019-05-30T23:17:23.771Z,20.40
2019-05-30T23:19:51.709Z,20.40
2019-05-30T23:22:18.173Z,20.40
2019-05-30T23:24:45.349Z,20.40
2019-05-30T23:27:12.460Z,20.40
2019-05-30T23:29:39.525Z,20.40
2019-05-30T23:32:06.616Z,20.40
2019-05-30T23:34:33.742Z,20.40
2019-05-30T23:37:00.895Z,20.40
2019-05-30T23:39:27.960Z,20.40
2019-05-30T23:41:55.237Z,20.40
2019-05-30T23:44:22.312Z,20.40
2019-05-30T23:46:49.385Z,20.40
2019-05-30T23:49:16.508Z,20.40
2019-05-30T23:51:43.615Z,20.40
2019-05-30T23:54:10.683Z,20.40
2019-05-30T23:56:37.803Z,20.40
2019-05-30T23:59:04.935Z,20.40
